sensor_id;sensor_type;location;lat;lon;timestamp;P1;durP1;ratioP1;P2;durP2;ratioP2
51594;SDS011;37677;53.254;6.594;2023-03-23T00:01:13;6.10;;;3.42;;
51594;SDS011;37677;53.254;6.594;2023-03-23T00:03:51;5.85;;;3.70;;
51594;SDS011;37677;53.254;6.594;2023-03-23T00:06:18;6.63;;;5.00;;
51594;SDS011;37677;53.254;6.594;2023-03-23T00:08:45;8.52;;;4.90;;
51594;SDS011;37677;53.254;6.594;2023-03-23T00:11:19;8.43;;;6.22;;
51594;SDS011;37677;53.254;6.594;2023-03-23T00:13:47;10.85;;;7.57;;
51594;SDS011;37677;53.254;6.594;2023-03-23T00:16:17;8.43;;;7.20;;
51594;SDS011;37677;53.254;6.594;2023-03-23T00:18:48;18.15;;;7.75;;
51594;SDS011;37677;53.254;6.594;2023-03-23T00:21:20;12.82;;;6.68;;
51594;SDS011;37677;53.254;6.594;2023-03-23T00:23:53;15.48;;;7.22;;
51594;SDS011;37677;53.254;6.594;2023-03-23T00:26:18;9.68;;;5.45;;
51594;SDS011;37677;53.254;6.594;2023-03-23T00:28:44;6.70;;;5.03;;
51594;SDS011;37677;53.254;6.594;2023-03-23T00:31:12;5.20;;;4.70;;
51594;SDS011;37677;53.254;6.594;2023-03-23T00:33:38;6.60;;;4.97;;
51594;SDS011;37677;53.254;6.594;2023-03-23T00:36:08;5.40;;;4.72;;
51594;SDS011;37677;53.254;6.594;2023-03-23T00:38:36;5.82;;;5.13;;
51594;SDS011;37677;53.254;6.594;2023-03-23T00:41:03;6.10;;;5.50;;
51594;SDS011;37677;53.254;6.594;2023-03-23T00:43:30;6.00;;;5.20;;
51594;SDS011;37677;53.254;6.594;2023-03-23T00:45:57;6.78;;;5.85;;
51594;SDS011;37677;53.254;6.594;2023-03-23T00:48:25;11.10;;;7.45;;
51594;SDS011;37677;53.254;6.594;2023-03-23T00:50:52;10.80;;;8.98;;
51594;SDS011;37677;53.254;6.594;2023-03-23T00:53:18;10.85;;;9.70;;
51594;SDS011;37677;53.254;6.594;2023-03-23T00:55:45;13.70;;;12.30;;
51594;SDS011;37677;53.254;6.594;2023-03-23T00:58:12;14.45;;;12.95;;
51594;SDS011;37677;53.254;6.594;2023-03-23T01:00:38;15.60;;;13.98;;
51594;SDS011;37677;53.254;6.594;2023-03-23T01:03:05;24.33;;;16.02;;
51594;SDS011;37677;53.254;6.594;2023-03-23T01:05:34;16.83;;;14.95;;
51594;SDS011;37677;53.254;6.594;2023-03-23T01:08:02;16.67;;;14.60;;
51594;SDS011;37677;53.254;6.594;2023-03-23T01:10:29;18.95;;;15.02;;
51594;SDS011;37677;53.254;6.594;2023-03-23T01:12:58;16.65;;;14.13;;
51594;SDS011;37677;53.254;6.594;2023-03-23T01:15:26;10.32;;;8.32;;
51594;SDS011;37677;53.254;6.594;2023-03-23T01:17:55;11.73;;;8.85;;
51594;SDS011;37677;53.254;6.594;2023-03-23T01:20:21;9.02;;;6.80;;
51594;SDS011;37677;53.254;6.594;2023-03-23T01:22:48;14.23;;;6.30;;
51594;SDS011;37677;53.254;6.594;2023-03-23T01:25:14;8.13;;;4.80;;
51594;SDS011;37677;53.254;6.594;2023-03-23T01:27:40;5.70;;;3.97;;
51594;SDS011;37677;53.254;6.594;2023-03-23T01:30:07;6.15;;;3.85;;
51594;SDS011;37677;53.254;6.594;2023-03-23T01:32:35;4.95;;;3.30;;
51594;SDS011;37677;53.254;6.594;2023-03-23T01:35:01;5.55;;;3.53;;
51594;SDS011;37677;53.254;6.594;2023-03-23T01:37:27;6.47;;;3.50;;
51594;SDS011;37677;53.254;6.594;2023-03-23T01:39:53;5.32;;;3.67;;
51594;SDS011;37677;53.254;6.594;2023-03-23T01:42:23;9.38;;;4.82;;
51594;SDS011;37677;53.254;6.594;2023-03-23T01:47:16;10.02;;;6.20;;
51594;SDS011;37677;53.254;6.594;2023-03-23T01:49:46;11.90;;;7.10;;
51594;SDS011;37677;53.254;6.594;2023-03-23T01:52:22;10.07;;;7.50;;
51594;SDS011;37677;53.254;6.594;2023-03-23T01:54:51;11.90;;;6.93;;
51594;SDS011;37677;53.254;6.594;2023-03-23T01:57:20;10.98;;;7.05;;
51594;SDS011;37677;53.254;6.594;2023-03-23T01:59:49;10.68;;;7.93;;
51594;SDS011;37677;53.254;6.594;2023-03-23T02:02:17;8.75;;;7.18;;
51594;SDS011;37677;53.254;6.594;2023-03-23T02:04:46;10.32;;;8.25;;
51594;SDS011;37677;53.254;6.594;2023-03-23T02:07:12;10.70;;;8.02;;
51594;SDS011;37677;53.254;6.594;2023-03-23T02:09:40;14.32;;;8.05;;
51594;SDS011;37677;53.254;6.594;2023-03-23T02:12:06;14.90;;;9.18;;
51594;SDS011;37677;53.254;6.594;2023-03-23T02:14:32;11.50;;;8.10;;
51594;SDS011;37677;53.254;6.594;2023-03-23T02:17:05;11.48;;;8.43;;
51594;SDS011;37677;53.254;6.594;2023-03-23T02:25:42;12.85;;;8.20;;
51594;SDS011;37677;53.254;6.594;2023-03-23T02:31:18;14.30;;;7.20;;
51594;SDS011;37677;53.254;6.594;2023-03-23T02:34:26;11.90;;;8.10;;
51594;SDS011;37677;53.254;6.594;2023-03-23T02:37:02;12.32;;;6.95;;
51594;SDS011;37677;53.254;6.594;2023-03-23T02:39:38;10.73;;;6.78;;
51594;SDS011;37677;53.254;6.594;2023-03-23T02:42:10;11.93;;;7.93;;
51594;SDS011;37677;53.254;6.594;2023-03-23T02:44:40;13.40;;;7.32;;
51594;SDS011;37677;53.254;6.594;2023-03-23T02:47:11;13.02;;;6.82;;
51594;SDS011;37677;53.254;6.594;2023-03-23T02:49:49;10.98;;;6.40;;
51594;SDS011;37677;53.254;6.594;2023-03-23T02:52:20;15.10;;;7.20;;
51594;SDS011;37677;53.254;6.594;2023-03-23T02:54:50;9.75;;;6.57;;
51594;SDS011;37677;53.254;6.594;2023-03-23T02:57:17;10.75;;;6.40;;
51594;SDS011;37677;53.254;6.594;2023-03-23T02:59:45;8.45;;;6.25;;
51594;SDS011;37677;53.254;6.594;2023-03-23T03:04:55;12.82;;;6.38;;
51594;SDS011;37677;53.254;6.594;2023-03-23T03:07:36;8.63;;;5.65;;
51594;SDS011;37677;53.254;6.594;2023-03-23T03:10:25;16.50;;;6.45;;
51594;SDS011;37677;53.254;6.594;2023-03-23T03:13:08;10.43;;;6.10;;
51594;SDS011;37677;53.254;6.594;2023-03-23T03:15:37;8.73;;;5.47;;
51594;SDS011;37677;53.254;6.594;2023-03-23T03:18:39;10.18;;;5.53;;
51594;SDS011;37677;53.254;6.594;2023-03-23T03:21:13;11.75;;;5.30;;
51594;SDS011;37677;53.254;6.594;2023-03-23T03:23:42;9.13;;;5.90;;
51594;SDS011;37677;53.254;6.594;2023-03-23T03:26:10;10.98;;;5.40;;
51594;SDS011;37677;53.254;6.594;2023-03-23T03:28:38;7.72;;;4.80;;
51594;SDS011;37677;53.254;6.594;2023-03-23T03:31:04;9.88;;;5.53;;
51594;SDS011;37677;53.254;6.594;2023-03-23T03:33:31;8.98;;;4.68;;
51594;SDS011;37677;53.254;6.594;2023-03-23T03:36:02;12.93;;;4.80;;
51594;SDS011;37677;53.254;6.594;2023-03-23T03:38:40;13.07;;;5.60;;
51594;SDS011;37677;53.254;6.594;2023-03-23T03:41:10;8.73;;;4.53;;
51594;SDS011;37677;53.254;6.594;2023-03-23T03:43:36;9.35;;;4.95;;
51594;SDS011;37677;53.254;6.594;2023-03-23T03:46:02;7.85;;;4.78;;
51594;SDS011;37677;53.254;6.594;2023-03-23T03:48:27;10.32;;;4.80;;
51594;SDS011;37677;53.254;6.594;2023-03-23T03:50:53;8.77;;;4.82;;
51594;SDS011;37677;53.254;6.594;2023-03-23T03:53:21;7.97;;;4.75;;
51594;SDS011;37677;53.254;6.594;2023-03-23T03:55:48;10.23;;;5.20;;
51594;SDS011;37677;53.254;6.594;2023-03-23T03:58:15;9.43;;;5.18;;
51594;SDS011;37677;53.254;6.594;2023-03-23T04:00:41;13.52;;;5.53;;
51594;SDS011;37677;53.254;6.594;2023-03-23T04:03:08;13.45;;;5.95;;
51594;SDS011;37677;53.254;6.594;2023-03-23T04:05:34;10.55;;;4.78;;
51594;SDS011;37677;53.254;6.594;2023-03-23T04:08:02;7.78;;;4.20;;
51594;SDS011;37677;53.254;6.594;2023-03-23T04:10:29;11.57;;;4.82;;
51594;SDS011;37677;53.254;6.594;2023-03-23T04:12:58;9.88;;;5.03;;
51594;SDS011;37677;53.254;6.594;2023-03-23T04:15:24;12.73;;;5.00;;
51594;SDS011;37677;53.254;6.594;2023-03-23T04:17:51;9.60;;;4.38;;
51594;SDS011;37677;53.254;6.594;2023-03-23T04:20:17;8.35;;;4.25;;
51594;SDS011;37677;53.254;6.594;2023-03-23T04:22:46;6.35;;;3.33;;
51594;SDS011;37677;53.254;6.594;2023-03-23T04:25:17;6.70;;;3.53;;
51594;SDS011;37677;53.254;6.594;2023-03-23T04:27:46;5.88;;;2.40;;
51594;SDS011;37677;53.254;6.594;2023-03-23T04:30:17;7.05;;;2.78;;
51594;SDS011;37677;53.254;6.594;2023-03-23T04:32:45;6.47;;;3.17;;
51594;SDS011;37677;53.254;6.594;2023-03-23T04:35:12;8.23;;;3.40;;
51594;SDS011;37677;53.254;6.594;2023-03-23T04:37:39;8.30;;;3.45;;
51594;SDS011;37677;53.254;6.594;2023-03-23T04:40:06;6.70;;;2.50;;
51594;SDS011;37677;53.254;6.594;2023-03-23T04:42:36;9.45;;;3.22;;
51594;SDS011;37677;53.254;6.594;2023-03-23T04:45:03;6.82;;;2.50;;
51594;SDS011;37677;53.254;6.594;2023-03-23T04:47:32;7.78;;;2.55;;
51594;SDS011;37677;53.254;6.594;2023-03-23T04:50:04;8.23;;;2.60;;
51594;SDS011;37677;53.254;6.594;2023-03-23T04:52:33;7.20;;;2.72;;
51594;SDS011;37677;53.254;6.594;2023-03-23T04:54:58;9.98;;;3.20;;
51594;SDS011;37677;53.254;6.594;2023-03-23T04:57:24;7.88;;;3.15;;
51594;SDS011;37677;53.254;6.594;2023-03-23T04:59:53;8.95;;;3.38;;
51594;SDS011;37677;53.254;6.594;2023-03-23T05:02:19;8.27;;;3.00;;
51594;SDS011;37677;53.254;6.594;2023-03-23T05:04:45;9.93;;;3.20;;
51594;SDS011;37677;53.254;6.594;2023-03-23T05:07:11;16.08;;;3.15;;
51594;SDS011;37677;53.254;6.594;2023-03-23T05:09:37;8.75;;;3.00;;
51594;SDS011;37677;53.254;6.594;2023-03-23T05:12:03;10.75;;;3.35;;
51594;SDS011;37677;53.254;6.594;2023-03-23T05:14:30;10.23;;;2.88;;
51594;SDS011;37677;53.254;6.594;2023-03-23T05:16:56;10.07;;;3.20;;
51594;SDS011;37677;53.254;6.594;2023-03-23T05:19:21;11.00;;;3.20;;
51594;SDS011;37677;53.254;6.594;2023-03-23T05:21:47;12.95;;;3.58;;
51594;SDS011;37677;53.254;6.594;2023-03-23T05:24:13;10.52;;;3.58;;
51594;SDS011;37677;53.254;6.594;2023-03-23T05:26:38;9.68;;;3.63;;
51594;SDS011;37677;53.254;6.594;2023-03-23T05:29:04;15.30;;;4.25;;
51594;SDS011;37677;53.254;6.594;2023-03-23T05:31:30;11.80;;;4.25;;
51594;SDS011;37677;53.254;6.594;2023-03-23T05:33:55;15.50;;;4.88;;
51594;SDS011;37677;53.254;6.594;2023-03-23T05:36:21;15.50;;;4.63;;
51594;SDS011;37677;53.254;6.594;2023-03-23T05:38:48;17.48;;;4.78;;
51594;SDS011;37677;53.254;6.594;2023-03-23T05:41:16;16.88;;;5.10;;
51594;SDS011;37677;53.254;6.594;2023-03-23T05:43:41;13.45;;;5.22;;
51594;SDS011;37677;53.254;6.594;2023-03-23T05:46:07;18.98;;;4.82;;
51594;SDS011;37677;53.254;6.594;2023-03-23T05:48:34;19.77;;;4.85;;
51594;SDS011;37677;53.254;6.594;2023-03-23T05:51:00;21.52;;;4.95;;
51594;SDS011;37677;53.254;6.594;2023-03-23T05:53:26;21.63;;;5.43;;
51594;SDS011;37677;53.254;6.594;2023-03-23T05:55:52;24.80;;;5.85;;
51594;SDS011;37677;53.254;6.594;2023-03-23T05:58:18;24.45;;;6.70;;
51594;SDS011;37677;53.254;6.594;2023-03-23T06:00:43;23.00;;;5.60;;
51594;SDS011;37677;53.254;6.594;2023-03-23T06:03:11;26.55;;;6.53;;
51594;SDS011;37677;53.254;6.594;2023-03-23T06:05:41;23.45;;;5.85;;
51594;SDS011;37677;53.254;6.594;2023-03-23T06:08:09;29.15;;;6.18;;
51594;SDS011;37677;53.254;6.594;2023-03-23T06:10:34;25.48;;;5.53;;
51594;SDS011;37677;53.254;6.594;2023-03-23T06:13:01;26.23;;;5.95;;
51594;SDS011;37677;53.254;6.594;2023-03-23T06:15:27;25.23;;;6.50;;
51594;SDS011;37677;53.254;6.594;2023-03-23T06:17:58;26.55;;;6.30;;
51594;SDS011;37677;53.254;6.594;2023-03-23T06:20:24;26.40;;;6.72;;
51594;SDS011;37677;53.254;6.594;2023-03-23T06:22:50;29.13;;;7.20;;
51594;SDS011;37677;53.254;6.594;2023-03-23T06:25:17;27.77;;;6.47;;
51594;SDS011;37677;53.254;6.594;2023-03-23T06:27:44;26.67;;;5.93;;
51594;SDS011;37677;53.254;6.594;2023-03-23T06:30:11;29.00;;;7.13;;
51594;SDS011;37677;53.254;6.594;2023-03-23T06:32:40;27.27;;;6.03;;
51594;SDS011;37677;53.254;6.594;2023-03-23T06:35:07;25.38;;;6.03;;
51594;SDS011;37677;53.254;6.594;2023-03-23T06:37:34;27.65;;;6.55;;
51594;SDS011;37677;53.254;6.594;2023-03-23T06:40:01;23.63;;;5.55;;
51594;SDS011;37677;53.254;6.594;2023-03-23T06:42:31;27.60;;;6.20;;
51594;SDS011;37677;53.254;6.594;2023-03-23T06:44:57;23.75;;;5.28;;
51594;SDS011;37677;53.254;6.594;2023-03-23T06:47:25;16.38;;;4.35;;
51594;SDS011;37677;53.254;6.594;2023-03-23T06:49:54;19.05;;;4.40;;
51594;SDS011;37677;53.254;6.594;2023-03-23T06:52:21;16.35;;;4.63;;
51594;SDS011;37677;53.254;6.594;2023-03-23T06:54:48;14.50;;;4.40;;
51594;SDS011;37677;53.254;6.594;2023-03-23T06:57:14;14.73;;;4.28;;
51594;SDS011;37677;53.254;6.594;2023-03-23T06:59:40;15.63;;;4.60;;
51594;SDS011;37677;53.254;6.594;2023-03-23T07:02:10;15.65;;;3.67;;
51594;SDS011;37677;53.254;6.594;2023-03-23T07:04:37;11.68;;;3.45;;
51594;SDS011;37677;53.254;6.594;2023-03-23T07:07:04;14.23;;;4.03;;
51594;SDS011;37677;53.254;6.594;2023-03-23T07:09:31;12.52;;;3.92;;
51594;SDS011;37677;53.254;6.594;2023-03-23T07:11:57;13.95;;;3.72;;
51594;SDS011;37677;53.254;6.594;2023-03-23T07:14:23;15.40;;;4.22;;
51594;SDS011;37677;53.254;6.594;2023-03-23T07:16:49;14.80;;;3.80;;
51594;SDS011;37677;53.254;6.594;2023-03-23T07:19:15;14.52;;;3.60;;
51594;SDS011;37677;53.254;6.594;2023-03-23T07:21:41;14.35;;;3.63;;
51594;SDS011;37677;53.254;6.594;2023-03-23T07:24:10;16.92;;;5.47;;
51594;SDS011;37677;53.254;6.594;2023-03-23T07:26:39;18.98;;;4.40;;
51594;SDS011;37677;53.254;6.594;2023-03-23T07:29:07;16.55;;;5.18;;
51594;SDS011;37677;53.254;6.594;2023-03-23T07:31:33;20.90;;;5.35;;
51594;SDS011;37677;53.254;6.594;2023-03-23T07:34:00;22.17;;;5.38;;
51594;SDS011;37677;53.254;6.594;2023-03-23T07:36:26;22.38;;;6.88;;
51594;SDS011;37677;53.254;6.594;2023-03-23T07:38:52;27.15;;;6.72;;
51594;SDS011;37677;53.254;6.594;2023-03-23T07:41:18;26.65;;;6.15;;
51594;SDS011;37677;53.254;6.594;2023-03-23T07:43:44;21.23;;;5.38;;
51594;SDS011;37677;53.254;6.594;2023-03-23T07:46:12;29.65;;;7.30;;
51594;SDS011;37677;53.254;6.594;2023-03-23T07:48:39;27.10;;;6.43;;
51594;SDS011;37677;53.254;6.594;2023-03-23T07:51:05;31.23;;;7.75;;
51594;SDS011;37677;53.254;6.594;2023-03-23T07:53:32;33.35;;;7.47;;
51594;SDS011;37677;53.254;6.594;2023-03-23T07:55:58;24.95;;;6.97;;
51594;SDS011;37677;53.254;6.594;2023-03-23T07:58:24;28.98;;;6.93;;
51594;SDS011;37677;53.254;6.594;2023-03-23T08:00:51;34.05;;;7.88;;
51594;SDS011;37677;53.254;6.594;2023-03-23T08:03:17;31.90;;;7.72;;
51594;SDS011;37677;53.254;6.594;2023-03-23T08:05:43;32.90;;;8.10;;
51594;SDS011;37677;53.254;6.594;2023-03-23T08:08:09;29.08;;;7.03;;
51594;SDS011;37677;53.254;6.594;2023-03-23T08:10:35;35.20;;;8.30;;
51594;SDS011;37677;53.254;6.594;2023-03-23T08:13:02;31.02;;;6.95;;
51594;SDS011;37677;53.254;6.594;2023-03-23T08:15:28;29.00;;;6.97;;
51594;SDS011;37677;53.254;6.594;2023-03-23T08:17:54;36.17;;;8.00;;
51594;SDS011;37677;53.254;6.594;2023-03-23T08:20:20;26.45;;;6.50;;
51594;SDS011;37677;53.254;6.594;2023-03-23T08:22:54;35.28;;;8.68;;
51594;SDS011;37677;53.254;6.594;2023-03-23T08:25:22;30.75;;;7.18;;
51594;SDS011;37677;53.254;6.594;2023-03-23T08:27:49;35.53;;;7.95;;
51594;SDS011;37677;53.254;6.594;2023-03-23T08:30:16;29.08;;;7.93;;
51594;SDS011;37677;53.254;6.594;2023-03-23T08:32:44;29.10;;;7.88;;
51594;SDS011;37677;53.254;6.594;2023-03-23T08:35:12;30.02;;;7.28;;
51594;SDS011;37677;53.254;6.594;2023-03-23T08:37:40;32.60;;;7.90;;
51594;SDS011;37677;53.254;6.594;2023-03-23T08:40:10;29.65;;;7.40;;
51594;SDS011;37677;53.254;6.594;2023-03-23T08:42:39;34.90;;;7.85;;
51594;SDS011;37677;53.254;6.594;2023-03-23T08:45:07;34.65;;;8.30;;
51594;SDS011;37677;53.254;6.594;2023-03-23T08:47:35;31.58;;;7.93;;
51594;SDS011;37677;53.254;6.594;2023-03-23T08:50:02;26.83;;;6.95;;
51594;SDS011;37677;53.254;6.594;2023-03-23T08:52:28;32.30;;;7.95;;
51594;SDS011;37677;53.254;6.594;2023-03-23T08:54:54;32.63;;;8.77;;
51594;SDS011;37677;53.254;6.594;2023-03-23T08:57:21;30.92;;;7.32;;
51594;SDS011;37677;53.254;6.594;2023-03-23T08:59:48;32.40;;;8.18;;
51594;SDS011;37677;53.254;6.594;2023-03-23T09:02:14;30.83;;;7.10;;
51594;SDS011;37677;53.254;6.594;2023-03-23T09:04:40;25.65;;;7.20;;
51594;SDS011;37677;53.254;6.594;2023-03-23T09:07:12;31.48;;;8.05;;
51594;SDS011;37677;53.254;6.594;2023-03-23T09:09:39;28.42;;;8.02;;
51594;SDS011;37677;53.254;6.594;2023-03-23T09:12:06;36.28;;;8.45;;
51594;SDS011;37677;53.254;6.594;2023-03-23T09:14:33;32.22;;;8.18;;
51594;SDS011;37677;53.254;6.594;2023-03-23T09:17:00;29.45;;;7.57;;
51594;SDS011;37677;53.254;6.594;2023-03-23T09:19:26;27.98;;;7.65;;
51594;SDS011;37677;53.254;6.594;2023-03-23T09:21:52;31.65;;;7.68;;
51594;SDS011;37677;53.254;6.594;2023-03-23T09:24:17;32.63;;;7.35;;
51594;SDS011;37677;53.254;6.594;2023-03-23T09:26:44;28.40;;;7.65;;
51594;SDS011;37677;53.254;6.594;2023-03-23T09:29:10;34.22;;;9.40;;
51594;SDS011;37677;53.254;6.594;2023-03-23T09:31:37;31.15;;;7.70;;
51594;SDS011;37677;53.254;6.594;2023-03-23T09:34:05;36.92;;;8.15;;
51594;SDS011;37677;53.254;6.594;2023-03-23T09:36:31;35.15;;;8.90;;
51594;SDS011;37677;53.254;6.594;2023-03-23T09:38:58;30.88;;;7.25;;
51594;SDS011;37677;53.254;6.594;2023-03-23T09:47:08;27.98;;;7.05;;
51594;SDS011;37677;53.254;6.594;2023-03-23T09:55:23;34.85;;;7.65;;
51594;SDS011;37677;53.254;6.594;2023-03-23T09:57:51;28.10;;;7.95;;
51594;SDS011;37677;53.254;6.594;2023-03-23T10:00:26;27.65;;;7.53;;
51594;SDS011;37677;53.254;6.594;2023-03-23T10:03:05;26.35;;;7.63;;
51594;SDS011;37677;53.254;6.594;2023-03-23T10:05:47;29.90;;;7.60;;
51594;SDS011;37677;53.254;6.594;2023-03-23T10:16:09;21.30;;;6.03;;
51594;SDS011;37677;53.254;6.594;2023-03-23T10:21:32;25.15;;;6.93;;
51594;SDS011;37677;53.254;6.594;2023-03-23T10:24:02;23.38;;;6.18;;
51594;SDS011;37677;53.254;6.594;2023-03-23T10:26:51;22.80;;;6.68;;
51594;SDS011;37677;53.254;6.594;2023-03-23T10:29:27;26.88;;;6.93;;
51594;SDS011;37677;53.254;6.594;2023-03-23T10:32:11;19.05;;;5.85;;
51594;SDS011;37677;53.254;6.594;2023-03-23T10:37:17;21.20;;;5.10;;
51594;SDS011;37677;53.254;6.594;2023-03-23T10:39:46;21.58;;;5.18;;
51594;SDS011;37677;53.254;6.594;2023-03-23T10:42:21;19.17;;;5.78;;
51594;SDS011;37677;53.254;6.594;2023-03-23T10:44:47;19.30;;;5.38;;
51594;SDS011;37677;53.254;6.594;2023-03-23T10:47:14;21.00;;;6.28;;
51594;SDS011;37677;53.254;6.594;2023-03-23T10:50:02;18.50;;;5.20;;
51594;SDS011;37677;53.254;6.594;2023-03-23T10:52:37;21.52;;;5.63;;
51594;SDS011;37677;53.254;6.594;2023-03-23T10:57:31;19.35;;;5.38;;
51594;SDS011;37677;53.254;6.594;2023-03-23T11:00:04;18.33;;;5.78;;
51594;SDS011;37677;53.254;6.594;2023-03-23T11:02:36;23.33;;;6.45;;
51594;SDS011;37677;53.254;6.594;2023-03-23T11:05:04;21.10;;;5.65;;
51594;SDS011;37677;53.254;6.594;2023-03-23T11:07:33;26.80;;;6.35;;
51594;SDS011;37677;53.254;6.594;2023-03-23T11:10:05;21.20;;;6.40;;
51594;SDS011;37677;53.254;6.594;2023-03-23T11:12:43;20.45;;;5.80;;
51594;SDS011;37677;53.254;6.594;2023-03-23T11:15:32;27.30;;;6.95;;
51594;SDS011;37677;53.254;6.594;2023-03-23T11:18:05;19.88;;;6.18;;
51594;SDS011;37677;53.254;6.594;2023-03-23T11:20:39;19.38;;;6.28;;
51594;SDS011;37677;53.254;6.594;2023-03-23T11:23:13;27.55;;;6.85;;
51594;SDS011;37677;53.254;6.594;2023-03-23T11:25:56;25.40;;;7.03;;
51594;SDS011;37677;53.254;6.594;2023-03-23T11:28:28;24.13;;;6.70;;
51594;SDS011;37677;53.254;6.594;2023-03-23T11:31:02;28.23;;;7.00;;
51594;SDS011;37677;53.254;6.594;2023-03-23T11:36:18;21.27;;;6.28;;
51594;SDS011;37677;53.254;6.594;2023-03-23T11:38:45;23.73;;;6.40;;
51594;SDS011;37677;53.254;6.594;2023-03-23T11:41:11;22.88;;;6.53;;
51594;SDS011;37677;53.254;6.594;2023-03-23T11:43:39;22.60;;;6.75;;
51594;SDS011;37677;53.254;6.594;2023-03-23T11:49:00;20.80;;;5.75;;
51594;SDS011;37677;53.254;6.594;2023-03-23T11:54:15;17.88;;;5.25;;
51594;SDS011;37677;53.254;6.594;2023-03-23T11:56:51;29.40;;;6.10;;
51594;SDS011;37677;53.254;6.594;2023-03-23T11:59:18;17.88;;;4.88;;
51594;SDS011;37677;53.254;6.594;2023-03-23T12:04:39;20.48;;;5.53;;
51594;SDS011;37677;53.254;6.594;2023-03-23T12:11:07;12.25;;;4.28;;
51594;SDS011;37677;53.254;6.594;2023-03-23T12:21:27;17.20;;;4.95;;
51594;SDS011;37677;53.254;6.594;2023-03-23T12:24:20;17.92;;;4.93;;
51594;SDS011;37677;53.254;6.594;2023-03-23T12:38:03;14.98;;;4.20;;
51594;SDS011;37677;53.254;6.594;2023-03-23T12:43:38;17.33;;;4.95;;
51594;SDS011;37677;53.254;6.594;2023-03-23T12:46:23;20.95;;;5.05;;
51594;SDS011;37677;53.254;6.594;2023-03-23T12:49:06;14.05;;;4.32;;
51594;SDS011;37677;53.254;6.594;2023-03-23T12:54:26;17.75;;;5.30;;
51594;SDS011;37677;53.254;6.594;2023-03-23T13:03:02;15.25;;;4.40;;
51594;SDS011;37677;53.254;6.594;2023-03-23T13:05:51;18.60;;;4.60;;
51594;SDS011;37677;53.254;6.594;2023-03-23T13:11:11;18.38;;;4.90;;
51594;SDS011;37677;53.254;6.594;2023-03-23T13:13:44;16.60;;;4.63;;
51594;SDS011;37677;53.254;6.594;2023-03-23T13:22:04;15.23;;;3.92;;
51594;SDS011;37677;53.254;6.594;2023-03-23T13:25:06;18.90;;;5.55;;
51594;SDS011;37677;53.254;6.594;2023-03-23T13:27:39;20.17;;;4.75;;
51594;SDS011;37677;53.254;6.594;2023-03-23T13:30:17;17.92;;;5.35;;
51594;SDS011;37677;53.254;6.594;2023-03-23T13:32:49;22.90;;;5.25;;
51594;SDS011;37677;53.254;6.594;2023-03-23T13:35:18;19.85;;;5.05;;
51594;SDS011;37677;53.254;6.594;2023-03-23T13:37:48;23.08;;;5.80;;
51594;SDS011;37677;53.254;6.594;2023-03-23T13:40:20;20.27;;;5.45;;
51594;SDS011;37677;53.254;6.594;2023-03-23T13:42:53;22.48;;;5.00;;
51594;SDS011;37677;53.254;6.594;2023-03-23T13:45:24;20.70;;;5.35;;
51594;SDS011;37677;53.254;6.594;2023-03-23T13:48:22;17.55;;;5.32;;
51594;SDS011;37677;53.254;6.594;2023-03-23T13:50:57;19.42;;;5.47;;
51594;SDS011;37677;53.254;6.594;2023-03-23T13:53:29;21.40;;;5.43;;
51594;SDS011;37677;53.254;6.594;2023-03-23T13:56:17;22.88;;;6.05;;
51594;SDS011;37677;53.254;6.594;2023-03-23T13:59:05;18.48;;;5.40;;
51594;SDS011;37677;53.254;6.594;2023-03-23T14:01:40;22.23;;;6.13;;
51594;SDS011;37677;53.254;6.594;2023-03-23T14:04:11;18.48;;;5.63;;
51594;SDS011;37677;53.254;6.594;2023-03-23T14:06:42;24.58;;;5.05;;
51594;SDS011;37677;53.254;6.594;2023-03-23T14:09:23;20.25;;;4.82;;
51594;SDS011;37677;53.254;6.594;2023-03-23T14:12:04;17.58;;;5.35;;
51594;SDS011;37677;53.254;6.594;2023-03-23T14:15:13;17.52;;;5.00;;
51594;SDS011;37677;53.254;6.594;2023-03-23T14:17:40;20.45;;;5.45;;
51594;SDS011;37677;53.254;6.594;2023-03-23T14:20:20;18.70;;;5.53;;
51594;SDS011;37677;53.254;6.594;2023-03-23T14:22:54;20.58;;;5.28;;
51594;SDS011;37677;53.254;6.594;2023-03-23T14:25:21;17.13;;;5.13;;
51594;SDS011;37677;53.254;6.594;2023-03-23T14:27:51;26.30;;;5.70;;
51594;SDS011;37677;53.254;6.594;2023-03-23T14:30:19;21.42;;;5.60;;
51594;SDS011;37677;53.254;6.594;2023-03-23T14:32:52;22.95;;;5.18;;
51594;SDS011;37677;53.254;6.594;2023-03-23T14:35:29;23.00;;;5.60;;
51594;SDS011;37677;53.254;6.594;2023-03-23T14:38:06;20.80;;;6.15;;
51594;SDS011;37677;53.254;6.594;2023-03-23T14:40:45;26.55;;;5.32;;
51594;SDS011;37677;53.254;6.594;2023-03-23T14:43:13;25.70;;;6.13;;
51594;SDS011;37677;53.254;6.594;2023-03-23T14:45:41;17.85;;;5.35;;
51594;SDS011;37677;53.254;6.594;2023-03-23T14:48:07;18.70;;;5.18;;
51594;SDS011;37677;53.254;6.594;2023-03-23T14:50:39;17.45;;;5.03;;
51594;SDS011;37677;53.254;6.594;2023-03-23T14:53:22;22.58;;;5.50;;
51594;SDS011;37677;53.254;6.594;2023-03-23T14:56:18;23.60;;;5.47;;
51594;SDS011;37677;53.254;6.594;2023-03-23T14:58:46;25.20;;;5.65;;
51594;SDS011;37677;53.254;6.594;2023-03-23T15:01:16;17.75;;;5.03;;
51594;SDS011;37677;53.254;6.594;2023-03-23T15:03:56;16.65;;;4.25;;
51594;SDS011;37677;53.254;6.594;2023-03-23T15:06:26;17.85;;;4.30;;
51594;SDS011;37677;53.254;6.594;2023-03-23T15:08:56;12.50;;;4.05;;
51594;SDS011;37677;53.254;6.594;2023-03-23T15:13:54;16.35;;;4.18;;
51594;SDS011;37677;53.254;6.594;2023-03-23T15:16:32;13.27;;;3.97;;
51594;SDS011;37677;53.254;6.594;2023-03-23T15:19:00;14.48;;;3.70;;
51594;SDS011;37677;53.254;6.594;2023-03-23T15:21:28;11.88;;;3.92;;
51594;SDS011;37677;53.254;6.594;2023-03-23T15:23:55;12.57;;;3.80;;
51594;SDS011;37677;53.254;6.594;2023-03-23T15:29:04;10.00;;;3.55;;
51594;SDS011;37677;53.254;6.594;2023-03-23T15:31:41;13.20;;;4.20;;
51594;SDS011;37677;53.254;6.594;2023-03-23T15:34:36;15.63;;;4.15;;
51594;SDS011;37677;53.254;6.594;2023-03-23T15:37:13;14.27;;;4.28;;
51594;SDS011;37677;53.254;6.594;2023-03-23T15:39:51;11.25;;;3.47;;
51594;SDS011;37677;53.254;6.594;2023-03-23T15:42:28;13.05;;;3.60;;
51594;SDS011;37677;53.254;6.594;2023-03-23T15:45:05;10.70;;;3.50;;
51594;SDS011;37677;53.254;6.594;2023-03-23T15:47:38;12.63;;;3.30;;
51594;SDS011;37677;53.254;6.594;2023-03-23T15:50:20;12.02;;;3.58;;
51594;SDS011;37677;53.254;6.594;2023-03-23T15:52:59;14.38;;;3.42;;
51594;SDS011;37677;53.254;6.594;2023-03-23T15:55:35;13.60;;;4.03;;
51594;SDS011;37677;53.254;6.594;2023-03-23T15:58:12;12.73;;;3.65;;
51594;SDS011;37677;53.254;6.594;2023-03-23T16:00:38;16.73;;;4.60;;
51594;SDS011;37677;53.254;6.594;2023-03-23T16:03:05;17.92;;;4.65;;
51594;SDS011;37677;53.254;6.594;2023-03-23T16:05:35;18.92;;;4.95;;
51594;SDS011;37677;53.254;6.594;2023-03-23T16:08:01;20.55;;;5.28;;
51594;SDS011;37677;53.254;6.594;2023-03-23T16:10:28;22.10;;;5.00;;
51594;SDS011;37677;53.254;6.594;2023-03-23T16:12:54;21.75;;;5.05;;
51594;SDS011;37677;53.254;6.594;2023-03-23T16:15:20;18.55;;;5.30;;
51594;SDS011;37677;53.254;6.594;2023-03-23T16:17:46;21.50;;;5.65;;
51594;SDS011;37677;53.254;6.594;2023-03-23T16:20:21;22.35;;;6.25;;
51594;SDS011;37677;53.254;6.594;2023-03-23T16:22:48;18.05;;;5.43;;
51594;SDS011;37677;53.254;6.594;2023-03-23T16:25:15;22.08;;;5.68;;
51594;SDS011;37677;53.254;6.594;2023-03-23T16:27:42;23.48;;;6.35;;
51594;SDS011;37677;53.254;6.594;2023-03-23T16:30:15;16.55;;;5.43;;
51594;SDS011;37677;53.254;6.594;2023-03-23T16:32:41;21.40;;;5.50;;
51594;SDS011;37677;53.254;6.594;2023-03-23T16:35:07;23.38;;;5.47;;